Kotzebue, AK

11:30 AM AKST on February 12, 2016 (GMT -0900)
Wien Memorial | | Change Station
CLOSE
Current Station
Airport
Location: Kotzebue,
Elevation: 16 ft
Nearby Weather Stations

Elev 16 ft 66.88 °N, 162.60 °W | Updated 37 minutes ago

Overcast
Overcast
-1 °F
Feels Like -16 °F
N
9
Wind Variable Wind from ESE

Today
High -- | Low -- °F
--% Chance of Precip.
Yesterday
High -- | Low -- °F
Precip. -- in
Pressure 29.62 in
Visibility 7.0 miles
Clouds Overcast 2600 ft
Windchill -16 °F
Dew Point -6 °F
Humidity 79%
Rainfall 0.00 in
Snow Depth Not available.
10:13 AM 5:57 PM
Waxing Crescent, 23% visible
METAR PAOT 121953Z 11008KT 7SM OVC026 M18/M21 A2962 RMK AO2 SNE35 SLP031 P0000 T11831211
Pressure 29.62 in
Visibility 7.0 miles
Clouds Overcast 2600 ft
Windchill -16 °F
Dew Point -6 °F
Humidity 79%
Rainfall 0.00 in
Snow Depth Not available.
10:13 AM 5:57 PM
Waxing Crescent, 23% visible
METAR PAOT 121953Z 11008KT 7SM OVC026 M18/M21 A2962 RMK AO2 SNE35 SLP031 P0000 T11831211

10-Day Weather Forecast

Almanac

Astronomy

Feb. 12, 2016 Rise Set
Actual Time
Civil Twilight
Nautical Twilight
Astronomical Twilight
Moon
Length of Visible Light
Length of Day
Tomorrow will be .
, % of the Moon is Illuminated

Today's Extremes

State Highs State Lows

Community

WunderPhotos

Upload Photos

1,892,388 photos uploaded!

WunderBlog® & News

Nearby

Air Quality

  Air Quality AQ Index Pollutant
Not available.

Snow Depth

Station Depth Elevation

Earthquake Activity

City Distance Mag. Time & Date
Minimum magnitude displayed is 2.5.

Coastal Water Temperatures

Place Temperature

Stations

Nearby Weather Stations

Station Location Temp. Windchill Dew Point Humidity Wind Precip. Elev Updated Type
                   

Watches & Warnings

There are currently no watches in effect.